Time;durP1;ratioP1;P1;durP2;ratioP2;P2;SDS_P1;SDS_P2;PMS_P1;PMS_P2;Temp;Humidity;BMP_temperature;BMP_pressure;BME280_temperature;BME280_humidity;BME280_pressure;Samples;Min_cycle;Max_cycle;Signal;HPM_P1;HPM_P2
2022/09/24 00:00:47;;;;;;;8.07;6.50;;;11.60;99.90;;;;;;5057100;28;20040;-46
2022/09/24 00:03:12;;;;;;;10.60;6.65;;;11.60;99.90;;;;;;5066535;28;20045;-46
2022/09/24 00:05:39;;;;;;;7.88;6.93;;;11.60;99.90;;;;;;5059012;28;20576;-45
2022/09/24 00:08:07;;;;;;;7.03;6.38;;;11.60;99.90;;;;;;5060844;28;20395;-45
2022/09/24 00:10:43;;;;;;;6.75;6.05;;;11.60;99.90;;;;;;5062616;28;20040;-46
2022/09/24 00:13:12;;;;;;;6.88;6.18;;;11.60;99.90;;;;;;5060617;28;20017;-46
2022/09/24 00:15:49;;;;;;;6.70;6.03;;;11.60;99.90;;;;;;5062102;28;20211;-49
2022/09/24 00:18:16;;;;;;;8.35;6.57;;;11.50;99.90;;;;;;5033132;28;20019;-47
2022/09/24 00:20:43;;;;;;;8.05;6.55;;;11.50;99.90;;;;;;5062772;28;20096;-45
2022/09/24 00:23:10;;;;;;;7.43;6.55;;;11.50;99.90;;;;;;5060838;28;20430;-46
2022/09/24 00:28:27;;;;;;;7.20;6.47;;;11.50;99.90;;;;;;5051031;28;20508;-46
2022/09/24 00:30:53;;;;;;;6.88;6.18;;;11.50;99.90;;;;;;5058839;28;20024;-46
2022/09/24 00:33:20;;;;;;;7.80;7.00;;;11.50;99.90;;;;;;5061602;28;20013;-47
2022/09/24 00:35:45;;;;;;;11.60;7.35;;;11.50;99.90;;;;;;5062401;28;20107;-45
2022/09/24 00:38:11;;;;;;;10.48;7.00;;;11.50;99.90;;;;;;5062007;28;20024;-50
2022/09/24 00:40:38;;;;;;;7.57;6.32;;;11.50;99.90;;;;;;5061985;28;20524;-46
2022/09/24 00:43:27;;;;;;;9.10;7.35;;;11.50;99.90;;;;;;5057642;28;20095;-45
2022/09/24 00:46:06;;;;;;;7.93;6.97;;;11.50;99.90;;;;;;5044230;28;20097;-45
2022/09/24 00:48:33;;;;;;;7.03;6.32;;;11.40;99.90;;;;;;5057465;28;20029;-46
2022/09/24 00:51:00;;;;;;;8.63;6.40;;;11.50;99.90;;;;;;5060424;28;20056;-45
2022/09/24 00:53:31;;;;;;;6.90;6.22;;;11.50;99.90;;;;;;5063011;28;20016;-45
2022/09/24 00:55:58;;;;;;;9.32;7.28;;;11.40;99.90;;;;;;5060803;28;20386;-45
2022/09/24 00:58:24;;;;;;;8.23;7.43;;;11.50;99.90;;;;;;5057181;28;20013;-46
2022/09/24 01:00:57;;;;;;;8.48;7.35;;;11.40;99.90;;;;;;5056593;28;20120;-46
2022/09/24 01:03:24;;;;;;;11.65;7.00;;;11.40;99.90;;;;;;5062177;28;20025;-45
2022/09/24 01:05:50;;;;;;;7.70;6.63;;;11.40;99.90;;;;;;5060094;28;20017;-47
2022/09/24 01:08:17;;;;;;;8.18;7.22;;;11.40;99.90;;;;;;5061959;28;20078;-46
2022/09/24 01:11:20;;;;;;;7.50;6.72;;;11.40;99.90;;;;;;5060456;28;20017;-45
2022/09/24 01:14:22;;;;;;;9.07;6.72;;;11.40;99.90;;;;;;5054811;28;20048;-46
2022/09/24 01:17:17;;;;;;;6.38;5.78;;;11.40;99.90;;;;;;5068144;22;20142;-85
2022/09/24 01:19:59;;;;;;;8.35;7.38;;;11.40;99.90;;;;;;5045463;28;20029;-85
2022/09/24 01:22:39;;;;;;;7.32;6.40;;;11.30;99.90;;;;;;5037757;28;20028;-85
2022/09/24 01:25:49;;;;;;;7.75;6.53;;;11.30;99.90;;;;;;5043781;28;20025;-85
2022/09/24 01:28:58;;;;;;;8.93;7.75;;;11.40;99.90;;;;;;5045814;28;20052;-83
2022/09/24 01:31:30;;;;;;;8.00;6.47;;;11.40;99.90;;;;;;5044027;28;20032;-84
2022/09/24 01:33:58;;;;;;;6.90;6.22;;;11.30;99.90;;;;;;5044874;28;20051;-85
2022/09/24 01:36:26;;;;;;;9.38;6.82;;;11.30;99.90;;;;;;5046726;28;20427;-85
2022/09/24 01:38:53;;;;;;;8.80;7.13;;;11.30;99.90;;;;;;5044393;28;20036;-85
2022/09/24 01:41:20;;;;;;;7.00;6.30;;;11.30;99.90;;;;;;5041319;28;20021;-85
2022/09/24 01:43:47;;;;;;;9.27;8.05;;;11.30;99.90;;;;;;5047894;28;20032;-85
2022/09/24 01:46:15;;;;;;;8.73;7.10;;;11.30;99.90;;;;;;5059512;28;20021;-85
2022/09/24 01:48:41;;;;;;;8.98;7.22;;;11.30;99.90;;;;;;5048345;28;20025;-85
2022/09/24 01:51:07;;;;;;;10.98;7.22;;;11.30;99.90;;;;;;5042523;28;20093;-84
2022/09/24 01:53:51;;;;;;;10.32;7.70;;;11.30;99.90;;;;;;5065238;28;20029;-84
2022/09/24 01:56:41;;;;;;;8.82;7.78;;;11.20;99.90;;;;;;5036349;28;20021;-86
2022/09/24 01:59:15;;;;;;;9.40;6.85;;;11.30;99.90;;;;;;5040683;28;20025;-85
2022/09/24 02:01:49;;;;;;;8.05;7.13;;;11.30;99.90;;;;;;5046049;28;20025;-85
2022/09/24 02:04:18;;;;;;;10.35;7.57;;;11.30;99.90;;;;;;5038329;28;20021;-86
2022/09/24 02:06:55;;;;;;;7.10;6.40;;;11.30;99.90;;;;;;5044177;28;20029;-83
2022/09/24 02:09:31;;;;;;;9.25;8.35;;;11.30;99.90;;;;;;5057204;28;20028;-83
2022/09/24 02:12:05;;;;;;;9.50;7.22;;;11.30;99.90;;;;;;5041118;28;20021;-85
2022/09/24 02:14:36;;;;;;;8.95;7.05;;;11.30;99.90;;;;;;5043857;28;20094;-84
2022/09/24 02:17:03;;;;;;;9.43;8.52;;;11.20;99.90;;;;;;5067677;28;20794;-86
2022/09/24 02:19:32;;;;;;;8.30;7.30;;;11.30;99.90;;;;;;5059989;28;20076;-85
2022/09/24 02:21:58;;;;;;;8.73;6.80;;;11.20;99.90;;;;;;5041279;28;20024;-85
2022/09/24 02:24:46;;;;;;;7.68;6.68;;;11.20;99.90;;;;;;5041659;28;20031;-85
2022/09/24 02:27:12;;;;;;;9.48;8.50;;;11.20;99.90;;;;;;5044892;28;20036;-85
2022/09/24 02:29:38;;;;;;;8.50;7.10;;;11.20;99.90;;;;;;5043779;28;20032;-84
2022/09/24 02:32:05;;;;;;;7.68;6.78;;;11.20;99.90;;;;;;5061349;28;20025;-84
2022/09/24 02:34:38;;;;;;;8.70;7.57;;;11.20;99.90;;;;;;5044062;28;20024;-85
2022/09/24 02:37:10;;;;;;;7.85;7.00;;;11.20;99.90;;;;;;5062261;28;20049;-86
2022/09/24 02:39:36;;;;;;;9.10;7.57;;;11.20;99.90;;;;;;5048781;28;20028;-84
2022/09/24 02:42:04;;;;;;;8.93;7.72;;;11.20;99.90;;;;;;5046313;28;20029;-84
2022/09/24 02:44:31;;;;;;;8.73;7.47;;;11.20;99.90;;;;;;5048656;28;20027;-84
2022/09/24 02:46:57;;;;;;;13.18;7.63;;;11.10;99.90;;;;;;5048636;28;20107;-86
2022/09/24 02:49:22;;;;;;;11.00;8.13;;;11.20;99.90;;;;;;5048441;28;20626;-86
2022/09/24 02:51:48;;;;;;;7.50;6.75;;;11.10;99.90;;;;;;5063870;28;20122;-84
2022/09/24 02:54:13;;;;;;;7.80;7.00;;;11.20;99.90;;;;;;5066545;28;20017;-84
2022/09/24 02:56:39;;;;;;;8.15;6.93;;;11.10;99.90;;;;;;5048405;28;20081;-85
2022/09/24 02:59:06;;;;;;;8.95;6.85;;;11.20;99.90;;;;;;5044631;28;20024;-85
2022/09/24 03:01:33;;;;;;;8.32;7.47;;;11.20;99.90;;;;;;5045267;28;20045;-85
2022/09/24 03:03:59;;;;;;;9.50;7.18;;;11.20;99.90;;;;;;5047533;28;20116;-87
2022/09/24 03:06:25;;;;;;;10.80;7.88;;;11.20;99.90;;;;;;5062780;28;20021;-86
2022/09/24 03:08:52;;;;;;;8.15;6.93;;;11.20;99.90;;;;;;5047956;28;20111;-86
2022/09/24 03:11:20;;;;;;;7.90;7.10;;;11.10;99.90;;;;;;5048858;28;20024;-86
2022/09/24 03:13:46;;;;;;;9.85;6.97;;;11.20;99.90;;;;;;5049255;28;20037;-85
2022/09/24 03:16:11;;;;;;;8.40;7.13;;;11.20;99.90;;;;;;5049084;28;20392;-86
2022/09/24 03:18:37;;;;;;;8.50;6.93;;;11.10;99.90;;;;;;5049523;28;20059;-85
2022/09/24 03:21:07;;;;;;;9.60;7.57;;;11.10;99.90;;;;;;5047763;28;20108;-85
2022/09/24 03:23:33;;;;;;;8.00;7.20;;;11.10;99.90;;;;;;5048505;28;20020;-85
2022/09/24 03:25:59;;;;;;;8.27;7.47;;;11.10;99.90;;;;;;5048311;28;20101;-86
2022/09/24 03:28:25;;;;;;;8.32;7.47;;;11.10;99.90;;;;;;5049306;28;20496;-86
2022/09/24 03:31:00;;;;;;;9.27;7.72;;;11.10;99.90;;;;;;5048344;28;20063;-86
2022/09/24 03:33:37;;;;;;;7.45;6.72;;;11.10;99.90;;;;;;5048898;28;20066;-86
2022/09/24 03:36:08;;;;;;;7.57;6.82;;;11.10;99.90;;;;;;5047484;28;20047;-86
2022/09/24 03:38:35;;;;;;;9.10;8.10;;;11.10;99.90;;;;;;5068465;28;20430;-85
2022/09/24 03:41:01;;;;;;;9.70;7.90;;;11.10;99.90;;;;;;5065567;28;20051;-86
2022/09/24 03:43:27;;;;;;;7.95;6.57;;;11.10;99.90;;;;;;5049086;28;20017;-85
2022/09/24 03:45:54;;;;;;;8.10;7.20;;;11.10;99.90;;;;;;5048774;28;20036;-85
2022/09/24 03:48:20;;;;;;;8.55;6.72;;;11.10;99.90;;;;;;5049199;28;20021;-85
2022/09/24 03:50:46;;;;;;;7.20;6.55;;;11.10;99.90;;;;;;5047827;28;20020;-86
2022/09/24 03:53:13;;;;;;;8.55;7.65;;;11.10;99.90;;;;;;5036101;28;20101;-85
2022/09/24 03:55:47;;;;;;;7.50;6.68;;;11.10;99.90;;;;;;5051242;28;20044;-85
2022/09/24 03:58:14;;;;;;;12.10;8.23;;;11.10;99.90;;;;;;5054427;28;20032;-86
2022/09/24 04:00:41;;;;;;;8.15;7.22;;;11.10;99.90;;;;;;5064931;28;20028;-85
2022/09/24 04:03:07;;;;;;;7.55;6.60;;;11.00;99.90;;;;;;5043615;28;20025;-86
2022/09/24 04:05:33;;;;;;;8.15;6.55;;;11.00;99.90;;;;;;5056531;28;20500;-86
2022/09/24 04:07:59;;;;;;;7.93;6.78;;;11.00;99.90;;;;;;5043737;28;20033;-85
2022/09/24 04:10:25;;;;;;;6.72;6.05;;;11.00;99.90;;;;;;5066911;28;20024;-85
2022/09/24 04:12:51;;;;;;;10.18;7.32;;;11.10;99.90;;;;;;5044682;28;20108;-85
2022/09/24 04:15:17;;;;;;;8.45;7.20;;;11.00;99.90;;;;;;5043865;28;20123;-86
2022/09/24 04:17:50;;;;;;;7.80;7.10;;;11.00;99.90;;;;;;5043822;28;20384;-86
2022/09/24 04:20:20;;;;;;;8.05;7.25;;;11.10;99.90;;;;;;5032674;28;20016;-85
2022/09/24 04:22:45;;;;;;;8.85;7.28;;;11.00;99.90;;;;;;5044953;28;20043;-86
2022/09/24 04:25:11;;;;;;;7.30;6.60;;;11.00;99.90;;;;;;5047274;28;20455;-85
2022/09/24 04:27:38;;;;;;;8.60;7.82;;;11.00;99.90;;;;;;5044485;28;20790;-86
2022/09/24 04:30:04;;;;;;;8.00;7.25;;;11.00;99.90;;;;;;5044481;28;20021;-85
2022/09/24 04:32:30;;;;;;;7.93;7.20;;;11.00;99.90;;;;;;5049088;28;20031;-86
2022/09/24 04:34:55;;;;;;;10.63;7.90;;;11.00;99.90;;;;;;5060031;28;20024;-85
2022/09/24 04:37:21;;;;;;;9.27;8.27;;;11.00;99.90;;;;;;5046974;28;20013;-86
2022/09/24 04:39:46;;;;;;;10.35;8.00;;;11.00;99.90;;;;;;5044615;28;20024;-86
2022/09/24 04:42:18;;;;;;;9.23;7.55;;;11.00;99.90;;;;;;5039501;28;20032;-85
2022/09/24 04:44:47;;;;;;;8.68;7.78;;;11.00;99.90;;;;;;5039710;28;20051;-85
2022/09/24 04:47:16;;;;;;;10.88;8.95;;;11.00;99.90;;;;;;5047820;28;20103;-86
2022/09/24 04:49:44;;;;;;;10.38;8.05;;;11.00;99.90;;;;;;5064390;28;20040;-86
2022/09/24 04:52:13;;;;;;;8.23;7.43;;;11.00;99.90;;;;;;5046551;28;20021;-86
2022/09/24 04:54:41;;;;;;;11.05;8.70;;;11.00;99.90;;;;;;5047424;28;20487;-85
2022/09/24 04:57:07;;;;;;;9.93;8.30;;;11.00;99.90;;;;;;5043485;28;20100;-86
2022/09/24 04:59:32;;;;;;;8.98;8.07;;;11.10;99.90;;;;;;5034574;28;20044;-86
2022/09/24 05:01:58;;;;;;;9.02;8.13;;;11.10;99.90;;;;;;5061802;28;20036;-86
2022/09/24 05:04:24;;;;;;;9.23;8.18;;;11.10;99.90;;;;;;5063466;28;20437;-86
2022/09/24 05:06:49;;;;;;;9.27;8.15;;;11.10;99.90;;;;;;5061956;28;20032;-86
2022/09/24 05:09:15;;;;;;;11.15;8.95;;;11.10;99.90;;;;;;5065707;28;20025;-86
2022/09/24 05:11:40;;;;;;;10.23;8.90;;;11.10;99.90;;;;;;5047266;28;20480;-86
2022/09/24 05:14:07;;;;;;;10.68;8.60;;;11.10;99.90;;;;;;5047132;28;20376;-86
2022/09/24 05:16:33;;;;;;;12.80;9.80;;;11.10;99.90;;;;;;5047482;28;20031;-86
2022/09/24 05:18:58;;;;;;;12.73;10.63;;;11.10;99.90;;;;;;5046157;28;20120;-86
2022/09/24 05:21:24;;;;;;;11.85;10.13;;;11.10;99.90;;;;;;5046278;28;20545;-86
2022/09/24 05:23:49;;;;;;;11.07;9.95;;;11.10;99.90;;;;;;5046980;28;20704;-86
2022/09/24 05:28:59;;;;;;;12.20;10.45;;;11.10;99.90;;;;;;5064206;28;20042;-86
2022/09/24 05:31:25;;;;;;;14.73;11.55;;;11.20;99.90;;;;;;5047089;28;20028;-86
2022/09/24 05:33:50;;;;;;;11.38;10.18;;;11.20;99.90;;;;;;5064521;28;20048;-86
2022/09/24 05:36:18;;;;;;;11.10;10.00;;;11.20;99.90;;;;;;5043106;28;20009;-86
2022/09/24 05:38:43;;;;;;;16.92;10.80;;;11.20;99.90;;;;;;5042306;28;20039;-86
2022/09/24 05:41:09;;;;;;;14.07;11.35;;;11.20;99.90;;;;;;5048258;28;20088;-86
2022/09/24 05:43:36;;;;;;;13.95;12.45;;;11.20;99.90;;;;;;5067127;28;20494;-86
2022/09/24 05:51:57;;;;;;;13.45;12.05;;;11.30;99.90;;;;;;5182642;22;20087;-56
2022/09/24 05:54:23;;;;;;;13.40;11.68;;;11.30;99.90;;;;;;5042928;28;20056;-58
2022/09/24 05:56:48;;;;;;;15.50;12.02;;;11.30;99.90;;;;;;5058918;28;20025;-58
2022/09/24 05:59:14;;;;;;;14.20;11.60;;;11.40;99.90;;;;;;5046209;28;20017;-53
2022/09/24 06:01:40;;;;;;;12.00;10.77;;;11.40;99.90;;;;;;5061015;28;20028;-56
2022/09/24 06:04:05;;;;;;;11.95;10.75;;;11.40;99.90;;;;;;5059853;28;20051;-53
2022/09/24 06:06:31;;;;;;;12.10;10.90;;;11.40;99.90;;;;;;5060487;28;20053;-58
2022/09/24 06:08:57;;;;;;;12.48;10.88;;;11.40;99.90;;;;;;5058807;28;20032;-58
2022/09/24 06:11:23;;;;;;;11.90;10.75;;;11.40;99.90;;;;;;5060864;28;20032;-54
2022/09/24 06:13:50;;;;;;;12.90;10.55;;;11.40;99.90;;;;;;5064670;28;20021;-55
2022/09/24 06:16:16;;;;;;;13.30;11.00;;;11.50;99.90;;;;;;5054205;28;20020;-53
2022/09/24 06:18:43;;;;;;;11.80;10.70;;;11.50;99.90;;;;;;5064793;28;20127;-55
2022/09/24 06:21:14;;;;;;;13.85;11.20;;;11.50;99.90;;;;;;5056411;28;20020;-58
2022/09/24 06:23:40;;;;;;;12.88;10.38;;;11.50;99.90;;;;;;5061819;28;20403;-57
2022/09/24 06:26:08;;;;;;;12.52;10.90;;;11.50;99.90;;;;;;5046652;28;20456;-54
2022/09/24 06:28:34;;;;;;;11.98;10.63;;;11.50;99.90;;;;;;5066044;28;20059;-54
2022/09/24 06:31:00;;;;;;;12.75;10.90;;;11.50;99.90;;;;;;5066807;28;20469;-58
2022/09/24 06:33:26;;;;;;;12.30;10.25;;;11.50;99.90;;;;;;5064682;28;20044;-58
2022/09/24 06:35:52;;;;;;;12.07;10.70;;;11.50;99.90;;;;;;5064082;28;20031;-58
2022/09/24 06:38:18;;;;;;;13.40;10.38;;;11.50;99.90;;;;;;5063087;28;20091;-54
2022/09/24 06:40:46;;;;;;;15.48;11.57;;;11.60;99.90;;;;;;5064200;28;20553;-57
2022/09/24 06:43:12;;;;;;;12.40;10.90;;;11.60;99.90;;;;;;5063125;28;20025;-58
2022/09/24 06:45:40;;;;;;;12.65;11.35;;;11.60;99.90;;;;;;5064458;28;20108;-54
2022/09/24 06:48:06;;;;;;;13.93;12.10;;;11.60;99.90;;;;;;5064156;28;20051;-56
2022/09/24 06:50:33;;;;;;;14.90;11.90;;;11.60;99.90;;;;;;5064249;28;20064;-54
2022/09/24 06:52:59;;;;;;;14.82;12.02;;;11.60;99.90;;;;;;5062463;28;20020;-56
2022/09/24 06:55:25;;;;;;;13.70;12.05;;;11.60;99.90;;;;;;5064181;28;20022;-57
2022/09/24 06:58:01;;;;;;;11.80;10.70;;;11.60;99.90;;;;;;5063842;28;20136;-54
2022/09/24 07:00:27;;;;;;;12.98;11.73;;;11.70;99.90;;;;;;5059146;28;20028;-58
2022/09/24 07:02:52;;;;;;;13.20;11.75;;;11.60;99.90;;;;;;5063330;28;20394;-56
2022/09/24 07:05:18;;;;;;;14.52;11.13;;;11.60;99.90;;;;;;5061064;28;20644;-53
2022/09/24 07:07:43;;;;;;;13.18;11.77;;;11.60;99.90;;;;;;5059268;28;20032;-53
2022/09/24 07:10:09;;;;;;;12.45;11.15;;;11.60;99.90;;;;;;5067757;28;20025;-56
2022/09/24 07:12:35;;;;;;;12.48;11.18;;;11.70;99.90;;;;;;5059826;28;20040;-54
2022/09/24 07:15:02;;;;;;;14.80;11.93;;;11.70;99.90;;;;;;5050272;28;20025;-54
2022/09/24 07:17:28;;;;;;;15.13;13.52;;;11.70;99.90;;;;;;5071621;22;20487;-49
2022/09/24 07:19:54;;;;;;;14.43;12.93;;;11.70;99.90;;;;;;5013723;28;20087;-49
2022/09/24 07:22:20;;;;;;;14.25;12.80;;;11.70;99.90;;;;;;5026763;28;20025;-48
2022/09/24 07:24:46;;;;;;;15.18;13.65;;;11.70;99.90;;;;;;5026852;28;20021;-50
2022/09/24 07:27:13;;;;;;;15.45;13.52;;;11.70;99.90;;;;;;5011579;28;20025;-48
2022/09/24 07:29:39;;;;;;;15.82;12.82;;;11.70;99.90;;;;;;5025316;28;20104;-49
2022/09/24 07:32:05;;;;;;;14.70;13.10;;;11.80;99.90;;;;;;5027178;28;20444;-48
2022/09/24 07:34:31;;;;;;;15.65;13.85;;;11.80;99.90;;;;;;5025084;28;20578;-48
2022/09/24 07:36:57;;;;;;;17.20;12.52;;;11.80;99.90;;;;;;5028360;28;20400;-50
2022/09/24 07:39:23;;;;;;;16.05;13.50;;;11.80;99.90;;;;;;5021766;28;20026;-48
2022/09/24 07:41:51;;;;;;;19.27;15.80;;;11.80;99.90;;;;;;5025840;28;20036;-48
2022/09/24 07:44:19;;;;;;;15.48;13.95;;;11.80;99.90;;;;;;5024347;28;20025;-51
2022/09/24 07:46:47;;;;;;;17.85;13.60;;;11.80;99.90;;;;;;5026248;28;20025;-52
2022/09/24 07:49:12;;;;;;;14.13;12.38;;;11.80;99.90;;;;;;5026212;28;20075;-49
2022/09/24 07:51:38;;;;;;;14.07;12.63;;;11.80;99.90;;;;;;5025309;28;20488;-56
2022/09/24 07:54:03;;;;;;;16.92;13.13;;;11.80;99.90;;;;;;5028328;28;20432;-50
2022/09/24 07:56:31;;;;;;;15.85;14.18;;;11.80;99.90;;;;;;5020824;28;20061;-54
2022/09/24 07:58:56;;;;;;;17.85;12.77;;;11.90;99.90;;;;;;5026615;28;20014;-55
2022/09/24 08:01:23;;;;;;;15.80;14.20;;;11.90;99.90;;;;;;5022456;28;20022;-53
2022/09/24 08:03:51;;;;;;;17.48;14.35;;;11.90;99.90;;;;;;5025747;28;20022;-58
2022/09/24 08:06:17;;;;;;;14.27;12.52;;;11.90;99.90;;;;;;5024132;28;20264;-52
2022/09/24 08:08:42;;;;;;;18.48;14.77;;;11.90;99.90;;;;;;5013021;28;20026;-54
2022/09/24 08:11:11;;;;;;;14.57;13.07;;;11.90;99.90;;;;;;5008919;28;20392;-53
2022/09/24 08:13:37;;;;;;;14.88;13.32;;;11.90;99.90;;;;;;5007364;28;20091;-60
2022/09/24 08:16:03;;;;;;;15.07;13.18;;;11.90;99.90;;;;;;5028177;28;20507;-59
2022/09/24 08:18:30;;;;;;;16.80;13.52;;;11.90;99.90;;;;;;5025923;28;20096;-58
2022/09/24 08:20:56;;;;;;;15.75;12.70;;;12.00;99.90;;;;;;5003692;28;20030;-54
2022/09/24 08:23:22;;;;;;;14.80;13.15;;;12.00;99.90;;;;;;5026295;28;20484;-55
2022/09/24 08:25:48;;;;;;;12.90;11.60;;;12.00;99.90;;;;;;5023274;28;20078;-55
2022/09/24 08:28:18;;;;;;;14.85;13.15;;;12.00;99.90;;;;;;5009677;28;20032;-55
2022/09/24 08:30:44;;;;;;;14.65;12.05;;;12.00;99.90;;;;;;5024607;28;20124;-53
2022/09/24 08:33:10;;;;;;;14.93;13.35;;;11.90;99.90;;;;;;5009739;28;20100;-57
2022/09/24 08:35:37;;;;;;;12.88;11.55;;;12.00;99.90;;;;;;5007535;28;20483;-56
2022/09/24 08:38:02;;;;;;;16.08;12.45;;;12.00;99.90;;;;;;5003649;28;20014;-56
2022/09/24 08:40:45;;;;;;;13.65;11.90;;;12.00;99.90;;;;;;5026430;28;20108;-52
2022/09/24 08:43:39;;;;;;;11.48;10.23;;;12.00;99.90;;;;;;5022884;28;20502;-51
2022/09/24 08:49:04;;;;;;;;;;;12.00;99.90;;;;;;5027968;28;20109;-57
2022/09/24 08:51:37;;;;;;;13.55;12.00;;;12.00;99.90;;;;;;5025148;28;19912;-53
2022/09/24 08:54:11;;;;;;;13.80;12.35;;;12.00;99.90;;;;;;5021903;28;20018;-53
2022/09/24 08:56:42;;;;;;;14.18;12.63;;;12.10;99.90;;;;;;5026185;28;20028;-55
2022/09/24 08:59:23;;;;;;;14.63;12.93;;;12.10;99.90;;;;;;5023059;28;20424;-56
2022/09/24 09:02:13;;;;;;;17.02;14.38;;;12.20;99.90;;;;;;5025948;28;20029;-56
2022/09/24 09:05:01;;;;;;;16.10;13.93;;;12.20;99.90;;;;;;5024628;28;20168;-53
2022/09/24 09:07:53;;;;;;;20.20;15.77;;;12.20;99.90;;;;;;5007762;28;20022;-57
2022/09/24 09:10:29;;;;;;;16.83;13.65;;;12.20;99.90;;;;;;5016320;28;20033;-51
2022/09/24 09:13:06;;;;;;;;;;;12.20;99.90;;;;;;5001279;28;20030;-54
2022/09/24 09:15:38;;;;;;;14.63;13.23;;;12.20;99.90;;;;;;5029123;28;19905;-52
2022/09/24 09:18:14;;;;;;;19.95;15.23;;;12.20;99.90;;;;;;5023137;28;20080;-51
2022/09/24 09:20:44;;;;;;;16.63;14.52;;;12.30;99.90;;;;;;5003716;28;20096;-53
2022/09/24 09:23:25;;;;;;;17.92;14.85;;;12.30;99.90;;;;;;5024661;28;20025;-52
2022/09/24 09:25:58;;;;;;;16.95;15.07;;;12.30;99.90;;;;;;5022018;28;20033;-50
2022/09/24 09:28:26;;;;;;;17.70;15.30;;;12.40;99.90;;;;;;5026379;28;20013;-54
2022/09/24 09:31:23;;;;;;;17.45;14.00;;;12.40;99.90;;;;;;5023211;28;20060;-51
2022/09/24 09:34:01;;;;;;;17.73;15.75;;;12.40;99.90;;;;;;5010315;28;20034;-53
2022/09/24 09:36:59;;;;;;;17.02;14.95;;;12.50;99.90;;;;;;5019997;28;20018;-53
2022/09/24 09:39:53;;;;;;;16.15;14.23;;;12.50;99.90;;;;;;5016740;28;20499;-52
2022/09/24 09:42:30;;;;;;;16.10;14.25;;;12.50;99.90;;;;;;5014698;28;20128;-54
2022/09/24 09:45:07;;;;;;;17.92;15.52;;;12.60;99.90;;;;;;5025022;28;20401;-50
2022/09/24 09:47:39;;;;;;;19.65;15.70;;;12.60;99.90;;;;;;5022889;28;20025;-54
2022/09/24 09:50:38;;;;;;;19.80;16.08;;;12.70;99.90;;;;;;5008899;28;20026;-52
2022/09/24 09:53:04;;;;;;;16.63;14.85;;;12.70;99.90;;;;;;5005351;28;20407;-50
2022/09/24 09:55:33;;;;;;;15.25;13.63;;;12.70;99.90;;;;;;5021838;28;20022;-50
2022/09/24 09:58:14;;;;;;;15.85;14.00;;;12.70;99.90;;;;;;5025017;28;20057;-52
2022/09/24 10:00:40;;;;;;;16.48;14.77;;;12.80;99.90;;;;;;5019088;28;20503;-50
2022/09/24 10:03:23;;;;;;;16.90;14.48;;;12.80;99.90;;;;;;5025520;28;20092;-52
2022/09/24 10:05:54;;;;;;;16.73;14.95;;;12.80;99.90;;;;;;5013929;28;20026;-49
2022/09/24 10:08:22;;;;;;;16.35;14.65;;;12.80;99.90;;;;;;4986331;28;20025;-51
2022/09/24 10:10:55;;;;;;;18.52;15.15;;;12.90;99.90;;;;;;5007171;28;20073;-50
2022/09/24 10:13:22;;;;;;;17.77;15.27;;;12.90;99.90;;;;;;5008770;28;20022;-53
2022/09/24 10:15:52;;;;;;;16.17;14.50;;;12.90;99.90;;;;;;5026270;28;20523;-52
2022/09/24 10:18:27;;;;;;;15.45;13.85;;;12.90;99.90;;;;;;5008599;28;20120;-50
2022/09/24 10:20:53;;;;;;;18.73;16.17;;;12.90;99.90;;;;;;5019632;28;20029;-50
2022/09/24 10:23:46;;;;;;;14.23;12.82;;;13.00;99.90;;;;;;5024566;28;20034;-50
2022/09/24 10:26:11;;;;;;;15.90;13.93;;;13.00;99.90;;;;;;5006901;28;20117;-50
2022/09/24 10:31:44;;;;;;;15.93;13.60;;;13.00;99.90;;;;;;4989848;28;20045;-50
2022/09/24 10:34:25;;;;;;;17.33;15.50;;;13.00;99.90;;;;;;5026421;28;20025;-50
2022/09/24 10:37:03;;;;;;;18.00;16.20;;;13.00;99.90;;;;;;4997870;28;20026;-50
2022/09/24 10:39:29;;;;;;;16.63;14.30;;;13.10;99.90;;;;;;5025641;28;20181;-51
2022/09/24 10:41:56;;;;;;;16.27;14.00;;;13.10;99.90;;;;;;5019394;28;20029;-56
2022/09/24 10:44:25;;;;;;;16.10;13.32;;;13.10;99.90;;;;;;5028412;28;20033;-49
2022/09/24 10:47:06;;;;;;;18.00;14.90;;;13.10;99.90;;;;;;5016897;28;20052;-50
2022/09/24 10:49:57;;;;;;;19.20;14.50;;;13.10;99.90;;;;;;5028431;28;20134;-49
2022/09/24 10:53:05;;;;;;;17.75;14.63;;;13.10;99.90;;;;;;5009695;28;20022;-50
2022/09/24 10:55:54;;;;;;;19.73;16.45;;;13.20;99.90;;;;;;4995735;28;20108;-50
2022/09/24 10:58:57;;;;;;;18.45;16.45;;;13.20;99.90;;;;;;5018918;28;20488;-50
2022/09/24 11:01:54;;;;;;;21.77;18.00;;;13.20;99.90;;;;;;5019204;28;20204;-51
2022/09/24 11:04:26;;;;;;;19.25;16.52;;;13.20;99.90;;;;;;5005157;28;20036;-51
2022/09/24 11:07:25;;;;;;;22.90;19.08;;;13.30;99.90;;;;;;5021139;28;20492;-50
2022/09/24 11:09:50;;;;;;;21.75;18.30;;;13.30;99.90;;;;;;5024546;28;20033;-49
2022/09/24 11:12:25;;;;;;;21.27;17.55;;;13.30;99.90;;;;;;5026352;28;20040;-51
2022/09/24 11:15:31;;;;;;;22.05;18.38;;;13.30;99.90;;;;;;5028188;28;20075;-49
2022/09/24 11:18:35;;;;;;;22.85;19.73;;;13.40;99.90;;;;;;5003807;28;20060;-49
2022/09/24 11:21:00;;;;;;;20.88;17.63;;;13.40;99.90;;;;;;5022309;28;20453;-51
2022/09/24 11:23:41;;;;;;;25.80;20.17;;;13.40;99.90;;;;;;5009489;28;20055;-49
2022/09/24 11:26:26;;;;;;;22.40;19.02;;;13.50;99.90;;;;;;5005974;28;20032;-49
2022/09/24 11:29:06;;;;;;;22.58;19.48;;;13.50;99.90;;;;;;5010175;28;20025;-50
2022/09/24 11:31:54;;;;;;;21.77;17.92;;;13.50;99.90;;;;;;5019479;28;20025;-49
2022/09/24 11:34:50;;;;;;;23.00;19.55;;;13.50;99.90;;;;;;5009882;28;20075;-49
2022/09/24 11:37:27;;;;;;;23.05;17.08;;;13.50;99.90;;;;;;4997503;28;20510;-49
2022/09/24 11:40:08;;;;;;;23.83;20.67;;;13.60;99.90;;;;;;5025036;28;20050;-49
2022/09/24 11:42:47;;;;;;;20.70;18.38;;;13.60;99.90;;;;;;5006504;28;20361;-52
2022/09/24 11:45:33;;;;;;;23.13;19.67;;;13.60;99.90;;;;;;5009701;28;20037;-49
2022/09/24 11:48:20;;;;;;;22.50;18.75;;;13.60;99.90;;;;;;5007238;28;20484;-49
2022/09/24 11:51:16;;;;;;;22.65;18.48;;;13.60;99.90;;;;;;5021365;28;20084;-49
2022/09/24 11:53:57;;;;;;;21.13;18.02;;;13.60;99.90;;;;;;5020758;28;20068;-49
2022/09/24 11:56:29;;;;;;;20.98;17.13;;;13.60;99.90;;;;;;5009416;28;20021;-50
2022/09/24 11:59:11;;;;;;;23.45;18.13;;;13.60;99.90;;;;;;5027404;28;20119;-49
2022/09/24 12:01:45;;;;;;;23.95;19.52;;;13.60;99.90;;;;;;5025280;28;20108;-50
2022/09/24 12:04:20;;;;;;;25.38;20.23;;;13.60;99.90;;;;;;5020134;28;20049;-48
2022/09/24 12:06:53;;;;;;;25.33;18.52;;;13.60;99.90;;;;;;5008371;28;20036;-52
2022/09/24 12:09:28;;;;;;;23.05;18.98;;;13.60;99.90;;;;;;5015153;28;20018;-49
2022/09/24 12:12:13;;;;;;;26.02;20.30;;;13.50;99.90;;;;;;5026908;28;20150;-50
2022/09/24 12:15:20;;;;;;;17.65;15.80;;;13.50;99.90;;;;;;5020743;28;20399;-51
2022/09/24 12:18:05;;;;;;;23.35;18.65;;;13.50;99.90;;;;;;5018375;28;20041;-49
2022/09/24 12:20:35;;;;;;;19.80;17.58;;;13.40;99.90;;;;;;5011198;28;20076;-53
2022/09/24 12:23:08;;;;;;;22.80;18.58;;;13.40;99.90;;;;;;5024333;28;20048;-52
2022/09/24 12:25:39;;;;;;;24.55;19.17;;;13.40;99.90;;;;;;5024019;28;20467;-50
2022/09/24 12:28:13;;;;;;;21.90;17.50;;;13.40;99.90;;;;;;5025920;28;20026;-51
2022/09/24 12:33:48;;;;;;;22.52;17.77;;;13.40;99.90;;;;;;5027846;28;20163;-53
2022/09/24 12:36:27;;;;;;;22.90;18.48;;;13.40;99.90;;;;;;5022586;28;20032;-51
2022/09/24 12:39:01;;;;;;;23.02;18.42;;;13.40;99.90;;;;;;5025878;28;20030;-50
2022/09/24 12:41:39;;;;;;;20.15;17.63;;;13.40;99.90;;;;;;5021971;28;20022;-52
2022/09/24 12:44:25;;;;;;;22.20;18.50;;;13.40;99.90;;;;;;5028299;28;20549;-52
2022/09/24 12:46:53;;;;;;;23.30;17.65;;;13.40;99.90;;;;;;5000094;28;20033;-49
2022/09/24 12:49:25;;;;;;;18.85;16.85;;;13.40;99.90;;;;;;5008766;28;20068;-50
2022/09/24 12:51:58;;;;;;;23.00;18.40;;;13.40;99.90;;;;;;5024896;28;20033;-54
2022/09/24 12:54:31;;;;;;;23.52;19.85;;;13.40;99.90;;;;;;5015005;28;20097;-49
2022/09/24 12:57:21;;;;;;;24.45;17.35;;;13.40;99.90;;;;;;5026037;28;20108;-51
2022/09/24 13:00:01;;;;;;;25.30;20.73;;;13.40;99.90;;;;;;5022055;28;20022;-49
2022/09/24 13:02:31;;;;;;;22.50;18.95;;;13.40;99.90;;;;;;4999218;28;20025;-50
2022/09/24 13:05:00;;;;;;;23.17;19.10;;;13.40;99.90;;;;;;5001968;28;20381;-50
2022/09/24 13:07:33;;;;;;;22.63;19.67;;;13.50;99.90;;;;;;5020335;28;20018;-52
2022/09/24 13:10:17;;;;;;;20.88;18.70;;;13.50;99.90;;;;;;5024612;28;20036;-49
2022/09/24 13:12:44;;;;;;;19.13;16.08;;;13.50;99.90;;;;;;5021156;28;20025;-50
2022/09/24 13:15:33;;;;;;;25.55;19.75;;;13.50;99.90;;;;;;5011084;28;20025;-49
2022/09/24 13:18:08;;;;;;;19.20;17.02;;;13.50;99.90;;;;;;5041994;22;20094;-50
2022/09/24 13:20:35;;;;;;;22.50;19.63;;;13.50;99.90;;;;;;5061262;28;20496;-53